createdAt,value
2019-05-22T00:00:48.489Z,17.77
2019-05-22T00:01:51.896Z,20.37
2019-05-22T00:02:53.711Z,26.93
2019-05-22T00:04:05.890Z,25.72
2019-05-22T00:05:15.676Z,20.27
2019-05-22T00:06:18.617Z,20.82
2019-05-22T00:07:20.223Z,18.73
2019-05-22T00:08:22.538Z,27.00
2019-05-22T00:09:27.161Z,19.73
2019-05-22T00:10:29.681Z,26.12
2019-05-22T00:11:32.611Z,19.87
2019-05-22T00:12:46.145Z,23.45
2019-05-22T00:13:39.436Z,26.17
2019-05-22T00:14:40.653Z,19.95
2019-05-22T00:15:43.967Z,20.23
2019-05-22T00:16:46.254Z,27.13
2019-05-22T00:17:49.344Z,24.60
2019-05-22T00:18:51.752Z,22.67
2019-05-22T00:19:53.864Z,21.73
2019-05-22T00:20:56.831Z,21.12
2019-05-22T00:21:59.847Z,34.58
2019-05-22T00:23:03.150Z,19.80
2019-05-22T00:24:05.167Z,25.72
2019-05-22T00:25:08.804Z,21.87
2019-05-22T00:26:10.430Z,27.13
2019-05-22T00:27:11.848Z,31.65
2019-05-22T00:28:13.952Z,24.63
2019-05-22T00:29:15.396Z,27.32
2019-05-22T00:30:17.461Z,20.27
2019-05-22T00:31:18.852Z,19.95
2019-05-22T00:32:21.826Z,23.02
2019-05-22T00:33:22.944Z,19.55
2019-05-22T00:34:25.265Z,21.10
2019-05-22T00:35:28.384Z,23.90
2019-05-22T00:36:30.604Z,26.23
2019-05-22T00:37:32.715Z,32.65
2019-05-22T00:38:34.249Z,19.60
2019-05-22T00:39:36.349Z,19.92
2019-05-22T00:40:52.460Z,28.90
2019-05-22T00:41:54.576Z,25.23
2019-05-22T00:43:04.052Z,28.00
2019-05-22T00:44:01.108Z,27.67
2019-05-22T00:45:04.332Z,21.10
2019-05-22T00:46:07.562Z,21.62
2019-05-22T00:47:11.945Z,24.80
2019-05-22T00:48:14.060Z,33.13
2019-05-22T00:49:16.328Z,27.90
2019-05-22T00:50:20.751Z,24.15
2019-05-22T00:51:35.890Z,26.42
2019-05-22T00:52:50.851Z,23.30
2019-05-22T00:53:59.365Z,24.75
2019-05-22T00:55:08.344Z,33.95
2019-05-22T00:56:27.953Z,29.07
2019-05-22T00:57:30.879Z,22.02
2019-05-22T00:58:36.570Z,27.13
2019-05-22T00:59:45.572Z,28.12
2019-05-22T01:00:48.803Z,27.65
2019-05-22T01:02:03.677Z,34.25
2019-05-22T01:03:06.288Z,21.82
2019-05-22T01:04:09.248Z,22.77
2019-05-22T01:05:10.648Z,26.42
2019-05-22T01:06:12.552Z,25.75
2019-05-22T01:07:16.445Z,24.82
2019-05-22T01:08:17.454Z,25.15
2019-05-22T01:09:25.106Z,28.92
2019-05-22T01:10:28.616Z,22.40
2019-05-22T01:11:31.861Z,30.48
2019-05-22T01:12:34.786Z,30.00
2019-05-22T01:13:36.920Z,31.40
2019-05-22T01:14:42.942Z,19.82
2019-05-22T01:15:41.657Z,27.67
2019-05-22T01:16:42.665Z,32.85
2019-05-22T01:17:44.424Z,29.35
2019-05-22T01:18:46.267Z,30.08
2019-05-22T01:19:51.311Z,27.65
2019-05-22T01:20:55.278Z,27.93
2019-05-22T01:21:59.581Z,32.70
2019-05-22T01:23:02.094Z,27.48
2019-05-22T01:24:03.699Z,25.12
2019-05-22T01:25:08.909Z,34.58
2019-05-22T01:26:15.670Z,37.63
2019-05-22T01:27:17.289Z,28.40
2019-05-22T01:28:19.002Z,29.00
2019-05-22T01:29:20.932Z,24.65
2019-05-22T01:30:35.872Z,28.67
2019-05-22T01:31:39.191Z,21.82
2019-05-22T01:32:42.176Z,26.15
2019-05-22T01:34:01.478Z,26.80
2019-05-22T01:35:06.577Z,23.35
2019-05-22T01:36:10.469Z,28.15
2019-05-22T01:37:13.470Z,31.82
2019-05-22T01:38:16.388Z,20.88
2019-05-22T01:39:23.112Z,32.33
2019-05-22T01:40:27.936Z,34.43
2019-05-22T01:41:36.633Z,23.05
2019-05-22T01:42:40.854Z,31.20
2019-05-22T01:43:43.070Z,29.40
2019-05-22T01:44:59.902Z,32.28
2019-05-22T01:45:54.366Z,27.20
2019-05-22T01:46:59.182Z,29.67
2019-05-22T01:48:05.705Z,28.67
2019-05-22T01:49:09.740Z,27.17
2019-05-22T01:50:16.487Z,19.30
2019-05-22T01:51:17.529Z,24.75
2019-05-22T01:52:19.721Z,32.38
2019-05-22T01:53:23.744Z,28.55
2019-05-22T01:54:25.069Z,24.18
2019-05-22T01:55:27.188Z,32.90
2019-05-22T01:56:29.409Z,32.95
2019-05-22T01:57:32.030Z,27.52
2019-05-22T01:58:34.249Z,26.12
2019-05-22T01:59:36.069Z,23.12
2019-05-22T02:00:38.399Z,30.32
2019-05-22T02:01:39.497Z,28.65
2019-05-22T02:02:42.112Z,24.95
2019-05-22T02:03:44.037Z,31.33
2019-05-22T02:04:47.057Z,22.22
2019-05-22T02:05:48.164Z,32.28
2019-05-22T02:06:50.182Z,38.38
2019-05-22T02:07:51.184Z,23.05
2019-05-22T02:09:39.027Z,36.25
2019-05-22T02:10:42.637Z,26.77
2019-05-22T02:11:48.153Z,37.80
2019-05-22T02:12:56.656Z,29.35
2019-05-22T02:14:04.550Z,27.73
2019-05-22T02:15:07.178Z,35.35
2019-05-22T02:16:08.506Z,33.33
2019-05-22T02:17:09.625Z,31.27
2019-05-22T02:18:13.556Z,31.60
2019-05-22T02:19:15.956Z,33.80
2019-05-22T02:20:19.128Z,37.55
2019-05-22T02:21:21.899Z,33.90
2019-05-22T02:22:25.707Z,35.10
2019-05-22T02:23:26.741Z,40.58
2019-05-22T02:24:29.648Z,33.90
2019-05-22T02:25:31.563Z,35.60
2019-05-22T02:26:33.675Z,35.58
2019-05-22T02:27:35.195Z,38.25
2019-05-22T02:28:36.331Z,34.10
2019-05-22T02:29:39.859Z,38.02
2019-05-22T02:30:42.762Z,33.90
2019-05-22T02:31:43.811Z,33.95
2019-05-22T02:32:47.409Z,26.42
2019-05-22T02:34:07.534Z,26.33
2019-05-22T02:35:09.643Z,33.00
2019-05-22T02:36:10.658Z,27.73
2019-05-22T02:37:11.760Z,31.05
2019-05-22T02:38:13.681Z,43.85
2019-05-22T02:39:20.918Z,37.78
2019-05-22T02:40:26.555Z,31.00
2019-05-22T02:41:31.380Z,43.25
2019-05-22T02:42:32.398Z,26.02
2019-05-22T02:43:33.509Z,26.50
2019-05-22T02:44:35.929Z,29.15
2019-05-22T02:45:37.153Z,32.60
2019-05-22T02:46:38.272Z,26.02
2019-05-22T02:47:39.879Z,25.45
2019-05-22T02:48:42.586Z,30.72
2019-05-22T02:49:44.228Z,28.30
2019-05-22T02:50:47.249Z,34.33
2019-05-22T02:51:49.865Z,28.38
2019-05-22T02:52:50.898Z,29.48
2019-05-22T02:53:58.491Z,29.15
2019-05-22T02:54:59.448Z,29.32
2019-05-22T02:56:01.270Z,30.08
2019-05-22T02:57:04.574Z,30.85
2019-05-22T02:58:05.688Z,27.95
2019-05-22T02:59:07.001Z,26.80
2019-05-22T03:00:11.125Z,33.13
2019-05-22T03:01:12.409Z,25.32
2019-05-22T03:02:13.751Z,28.32
2019-05-22T03:03:14.986Z,25.08
2019-05-22T03:04:16.963Z,27.85
2019-05-22T03:05:18.196Z,31.25
2019-05-22T03:06:19.233Z,29.00
2019-05-22T03:07:22.050Z,30.25
2019-05-22T03:08:26.911Z,27.07
2019-05-22T03:09:30.029Z,25.40
2019-05-22T03:10:31.956Z,25.82
2019-05-22T03:11:35.868Z,21.97
2019-05-22T03:12:38.277Z,29.77
2019-05-22T03:13:58.944Z,32.50
2019-05-22T03:15:01.183Z,23.32
2019-05-22T03:16:02.192Z,27.95
2019-05-22T03:17:06.767Z,24.85
2019-05-22T03:18:08.015Z,36.15
2019-05-22T03:19:14.360Z,30.10
2019-05-22T03:20:18.186Z,29.67
2019-05-22T03:21:20.005Z,30.55
2019-05-22T03:22:25.620Z,26.42
2019-05-22T03:23:35.745Z,34.40
2019-05-22T03:24:37.255Z,30.10
2019-05-22T03:25:40.484Z,27.75
2019-05-22T03:26:46.039Z,30.30
2019-05-22T03:27:49.456Z,33.15
2019-05-22T03:28:50.965Z,22.32
2019-05-22T03:29:52.949Z,25.85
2019-05-22T03:30:54.657Z,24.57
2019-05-22T03:31:55.985Z,22.25
2019-05-22T03:32:59.604Z,24.23
2019-05-22T03:34:01.325Z,25.05
2019-05-22T03:35:05.691Z,25.17
2019-05-22T03:36:09.873Z,26.87
2019-05-22T03:37:10.989Z,37.75
2019-05-22T03:38:12.101Z,30.52
2019-05-22T03:39:13.175Z,34.03
2019-05-22T03:40:15.022Z,31.37
2019-05-22T03:41:16.936Z,30.50
2019-05-22T03:42:20.054Z,24.57
2019-05-22T03:43:26.799Z,32.30
2019-05-22T03:44:28.689Z,22.60
2019-05-22T03:45:30.525Z,27.77
2019-05-22T03:46:35.533Z,27.48
2019-05-22T03:47:36.845Z,27.50
2019-05-22T03:48:38.378Z,27.40
2019-05-22T03:49:40.390Z,25.65
2019-05-22T03:50:42.417Z,25.00
2019-05-22T03:51:46.433Z,30.62
2019-05-22T03:52:48.070Z,26.93
2019-05-22T03:53:49.974Z,34.58
2019-05-22T03:54:51.699Z,32.42
2019-05-22T03:55:53.704Z,36.20
2019-05-22T03:56:54.838Z,26.75
2019-05-22T03:57:55.928Z,22.75
2019-05-22T03:58:57.150Z,26.27
2019-05-22T03:59:58.462Z,23.10
2019-05-22T04:01:00.597Z,33.92
2019-05-22T04:02:01.705Z,34.05
2019-05-22T04:03:04.327Z,29.48
2019-05-22T04:04:06.844Z,29.63
2019-05-22T04:05:09.265Z,31.73
2019-05-22T04:06:11.693Z,28.77
2019-05-22T04:07:20.671Z,24.15
2019-05-22T04:08:23.384Z,25.43
2019-05-22T04:09:26.181Z,25.82
2019-05-22T04:10:33.808Z,27.87
2019-05-22T04:11:38.628Z,27.42
2019-05-22T04:12:40.848Z,26.33
2019-05-22T04:13:42.001Z,31.70
2019-05-22T04:14:44.013Z,30.75
2019-05-22T04:15:45.331Z,20.85
2019-05-22T04:16:46.987Z,22.40
2019-05-22T04:17:48.111Z,22.93
2019-05-22T04:18:49.214Z,27.15
2019-05-22T04:19:51.742Z,29.50
2019-05-22T04:20:56.229Z,30.90
2019-05-22T04:21:57.348Z,32.73
2019-05-22T04:22:58.961Z,21.95
2019-05-22T04:24:00.183Z,26.77
2019-05-22T04:25:01.994Z,33.85
2019-05-22T04:26:04.507Z,22.05
2019-05-22T04:27:06.126Z,28.60
2019-05-22T04:28:07.834Z,30.57
2019-05-22T04:29:10.250Z,31.87
2019-05-22T04:30:12.857Z,31.55
2019-05-22T04:31:14.661Z,22.37
2019-05-22T04:32:26.442Z,22.58
2019-05-22T04:33:28.967Z,25.60
2019-05-22T04:34:30.773Z,28.87
2019-05-22T04:35:32.587Z,25.20
2019-05-22T04:36:34.814Z,20.37
2019-05-22T04:37:36.529Z,23.55
2019-05-22T04:38:38.636Z,27.10
2019-05-22T04:39:40.752Z,25.70
2019-05-22T04:40:46.174Z,23.52
2019-05-22T04:41:47.214Z,21.17
2019-05-22T04:42:48.333Z,26.17
2019-05-22T04:43:49.440Z,30.17
2019-05-22T04:45:13.731Z,26.48
2019-05-22T04:46:16.026Z,24.82
2019-05-22T04:47:17.663Z,24.43
2019-05-22T04:48:19.264Z,34.60
2019-05-22T04:49:20.582Z,28.35
2019-05-22T04:50:21.593Z,24.47
2019-05-22T04:51:25.350Z,28.87
2019-05-22T04:52:26.630Z,22.20
2019-05-22T04:53:27.958Z,26.30
2019-05-22T04:54:29.356Z,22.82
2019-05-22T04:55:30.592Z,24.15
2019-05-22T04:56:32.004Z,20.90
2019-05-22T04:57:33.585Z,20.70
2019-05-22T04:58:34.905Z,30.55
2019-05-22T04:59:36.325Z,34.55
2019-05-22T05:00:37.536Z,33.23
2019-05-22T05:01:38.851Z,27.17
2019-05-22T05:02:39.883Z,28.62
2019-05-22T05:03:40.905Z,27.15
2019-05-22T05:04:42.108Z,19.40
2019-05-22T05:05:48.048Z,27.85
2019-05-22T05:06:49.062Z,20.32
2019-05-22T05:07:51.485Z,30.80
2019-05-22T05:08:53.399Z,21.93
2019-05-22T05:09:54.616Z,23.35
2019-05-22T05:10:58.456Z,30.55
2019-05-22T05:11:59.564Z,27.30
2019-05-22T05:13:00.813Z,28.75
2019-05-22T05:14:02.009Z,24.55
2019-05-22T05:15:05.924Z,29.15
2019-05-22T05:16:07.338Z,23.70
2019-05-22T05:17:08.449Z,24.43
2019-05-22T05:18:09.476Z,31.85
2019-05-22T05:19:10.789Z,28.40
2019-05-22T05:20:22.014Z,26.75
2019-05-22T05:21:14.957Z,36.20
2019-05-22T05:22:19.767Z,25.95
2019-05-22T05:23:21.090Z,25.72
2019-05-22T05:24:22.304Z,30.25
2019-05-22T05:25:24.120Z,30.75
2019-05-22T05:26:26.201Z,27.35
2019-05-22T05:27:27.849Z,28.15
2019-05-22T05:28:28.882Z,29.25
2019-05-22T05:29:30.395Z,27.15
2019-05-22T05:30:31.933Z,31.40
2019-05-22T05:31:33.141Z,33.35
2019-05-22T05:32:34.564Z,33.15
2019-05-22T05:33:42.230Z,33.95
2019-05-22T05:34:50.239Z,22.65
2019-05-22T05:35:51.250Z,27.07
2019-05-22T05:36:54.271Z,20.82
2019-05-22T05:37:55.516Z,33.02
2019-05-22T05:38:58.832Z,30.62
2019-05-22T05:40:07.609Z,38.58
2019-05-22T05:41:08.832Z,26.02
2019-05-22T05:42:10.252Z,35.20
2019-05-22T05:43:12.884Z,25.25
2019-05-22T05:44:13.993Z,29.52
2019-05-22T05:45:15.420Z,23.80
2019-05-22T05:46:16.624Z,35.38
2019-05-22T05:47:17.644Z,25.40
2019-05-22T05:48:20.413Z,29.98
2019-05-22T05:49:21.432Z,25.85
2019-05-22T05:50:38.414Z,36.45
2019-05-22T05:51:33.112Z,33.63
2019-05-22T05:52:34.716Z,27.73
2019-05-22T05:53:56.096Z,31.45
2019-05-22T05:54:57.309Z,23.25
2019-05-22T05:56:02.138Z,25.50
2019-05-22T05:57:27.905Z,23.15
2019-05-22T05:58:32.270Z,23.92
2019-05-22T05:59:33.352Z,23.02
2019-05-22T06:00:44.459Z,30.80
2019-05-22T06:01:45.296Z,32.30
2019-05-22T06:02:56.035Z,25.48
2019-05-22T06:03:49.240Z,46.63
2019-05-22T06:04:50.651Z,22.85
2019-05-22T06:05:51.966Z,37.48
2019-05-22T06:07:00.668Z,26.25
2019-05-22T06:08:00.004Z,27.50
2019-05-22T06:09:02.933Z,23.90
2019-05-22T06:10:27.258Z,24.25
2019-05-22T06:11:40.370Z,35.33
2019-05-22T06:12:43.277Z,23.45
2019-05-22T06:13:44.312Z,30.43
2019-05-22T06:14:46.129Z,26.82
2019-05-22T06:15:54.406Z,32.93
2019-05-22T06:17:07.310Z,30.75
2019-05-22T06:18:29.743Z,29.05
2019-05-22T06:19:34.890Z,29.63
2019-05-22T06:20:36.204Z,32.65
2019-05-22T06:21:39.624Z,30.90
2019-05-22T06:22:42.228Z,26.35
2019-05-22T06:23:47.777Z,27.50
2019-05-22T06:24:59.147Z,27.17
2019-05-22T06:26:01.590Z,25.20
2019-05-22T06:27:07.587Z,27.42
2019-05-22T06:28:09.628Z,38.73
2019-05-22T06:29:12.869Z,30.62
2019-05-22T06:30:16.493Z,23.47
2019-05-22T06:31:36.670Z,19.75
2019-05-22T06:33:11.765Z,31.17
2019-05-22T06:34:12.879Z,26.15
2019-05-22T06:35:14.188Z,31.87
2019-05-22T06:36:17.200Z,18.98
2019-05-22T06:37:25.036Z,22.75
2019-05-22T06:38:51.786Z,41.60
2019-05-22T06:39:53.709Z,25.55
2019-05-22T06:40:54.826Z,30.75
2019-05-22T06:41:55.956Z,22.05
2019-05-22T06:43:23.194Z,26.80
2019-05-22T06:44:29.912Z,36.98
2019-05-22T06:45:31.020Z,26.27
2019-05-22T06:46:44.474Z,24.45
2019-05-22T06:47:45.588Z,27.07
2019-05-22T06:48:47.128Z,23.87
2019-05-22T06:49:51.054Z,26.45
2019-05-22T06:50:52.163Z,37.58
2019-05-22T06:51:53.195Z,22.67
2019-05-22T06:53:08.946Z,28.65
2019-05-22T06:53:57.707Z,27.98
2019-05-22T06:54:58.844Z,23.75
2019-05-22T06:55:59.852Z,36.20
2019-05-22T06:57:02.907Z,27.95
2019-05-22T06:58:04.260Z,24.70
2019-05-22T06:59:05.272Z,25.52
2019-05-22T07:00:14.173Z,25.35
2019-05-22T07:01:13.012Z,21.55
2019-05-22T07:02:14.237Z,26.90
2019-05-22T07:03:15.841Z,24.43
2019-05-22T07:04:17.253Z,25.25
2019-05-22T07:05:18.392Z,24.85
2019-05-22T07:06:19.626Z,28.25
2019-05-22T07:07:21.342Z,26.07
2019-05-22T07:08:22.461Z,31.12
2019-05-22T07:09:24.974Z,27.82
2019-05-22T07:10:26.684Z,35.20
2019-05-22T07:11:27.757Z,29.00
2019-05-22T07:12:30.818Z,34.33
2019-05-22T07:13:32.436Z,29.87
2019-05-22T07:14:37.258Z,21.60
2019-05-22T07:15:41.380Z,25.70
2019-05-22T07:16:42.688Z,27.67
2019-05-22T07:17:44.809Z,34.60
2019-05-22T07:18:46.532Z,27.32
2019-05-22T07:19:49.463Z,23.77
2019-05-22T07:20:51.716Z,28.15
2019-05-22T07:21:52.812Z,26.48
2019-05-22T07:22:54.234Z,27.70
2019-05-22T07:23:55.944Z,28.77
2019-05-22T07:24:57.603Z,21.87
2019-05-22T07:25:58.742Z,33.65
2019-05-22T07:27:21.190Z,24.77
2019-05-22T07:28:22.616Z,28.80
2019-05-22T07:29:25.149Z,22.02
2019-05-22T07:30:26.349Z,24.32
2019-05-22T07:31:27.704Z,35.28
2019-05-22T07:32:31.063Z,34.60
2019-05-22T07:33:33.052Z,25.08
2019-05-22T07:34:34.168Z,28.70
2019-05-22T07:35:50.348Z,28.67
2019-05-22T07:36:39.200Z,20.30
2019-05-22T07:37:41.248Z,28.38
2019-05-22T07:38:42.553Z,24.87
2019-05-22T07:39:44.068Z,35.05
2019-05-22T07:40:49.918Z,30.92
2019-05-22T07:41:48.809Z,32.17
2019-05-22T07:42:51.075Z,28.40
2019-05-22T07:43:52.159Z,24.63
2019-05-22T07:44:53.176Z,32.67
2019-05-22T07:45:54.401Z,26.07
2019-05-22T07:46:56.016Z,32.98
2019-05-22T07:47:58.863Z,28.23
2019-05-22T07:49:00.066Z,26.07
2019-05-22T07:50:02.314Z,36.38
2019-05-22T07:51:04.178Z,25.50
2019-05-22T07:52:06.595Z,23.55
2019-05-22T07:53:08.221Z,30.80
2019-05-22T07:54:09.225Z,38.08
2019-05-22T07:55:10.862Z,25.17
2019-05-22T07:56:13.298Z,27.80
2019-05-22T07:57:18.134Z,26.40
2019-05-22T07:58:19.533Z,32.63
2019-05-22T07:59:20.957Z,30.77
2019-05-22T08:00:22.193Z,39.25
2019-05-22T08:01:23.224Z,27.70
2019-05-22T08:02:28.143Z,25.60
2019-05-22T08:03:30.164Z,32.25
2019-05-22T08:04:31.172Z,24.30
2019-05-22T08:05:33.302Z,28.73
2019-05-22T08:06:34.334Z,29.65
2019-05-22T08:07:37.739Z,21.17
2019-05-22T08:08:41.788Z,49.73
2019-05-22T08:09:45.754Z,29.72
2019-05-22T08:10:47.815Z,37.08
2019-05-22T08:11:49.193Z,24.82
2019-05-22T08:12:50.989Z,21.70
2019-05-22T08:13:55.785Z,30.20
2019-05-22T08:14:56.795Z,23.27
2019-05-22T08:15:58.236Z,26.82
2019-05-22T08:17:03.086Z,27.82
2019-05-22T08:18:04.122Z,29.40
2019-05-22T08:19:05.535Z,27.80
2019-05-22T08:20:06.665Z,25.43
2019-05-22T08:21:07.691Z,38.40
2019-05-22T08:22:08.812Z,25.35
2019-05-22T08:23:10.529Z,28.10
2019-05-22T08:24:12.161Z,26.68
2019-05-22T08:25:13.280Z,25.82
2019-05-22T08:26:16.016Z,25.48
2019-05-22T08:27:18.545Z,30.05
2019-05-22T08:28:20.311Z,21.30
2019-05-22T08:29:21.417Z,25.92
2019-05-22T08:30:22.854Z,23.60
2019-05-22T08:31:24.993Z,23.05
2019-05-22T08:32:27.237Z,26.50
2019-05-22T08:33:28.464Z,21.77
2019-05-22T08:34:30.363Z,24.57
2019-05-22T08:35:31.721Z,28.80
2019-05-22T08:36:52.725Z,25.20
2019-05-22T08:37:55.245Z,28.45
2019-05-22T08:38:59.173Z,19.02
2019-05-22T08:40:00.319Z,25.57
2019-05-22T08:41:04.573Z,19.60
2019-05-22T08:42:11.374Z,28.65
2019-05-22T08:43:13.633Z,28.10
2019-05-22T08:44:17.131Z,24.23
2019-05-22T08:45:19.909Z,23.22
2019-05-22T08:46:21.312Z,26.77
2019-05-22T08:47:22.837Z,26.48
2019-05-22T08:48:24.345Z,25.55
2019-05-22T08:49:25.369Z,30.70
2019-05-22T08:50:28.286Z,22.80
2019-05-22T08:51:29.304Z,23.85
2019-05-22T08:52:30.629Z,29.45
2019-05-22T08:53:46.160Z,26.15
2019-05-22T08:54:35.160Z,30.60
2019-05-22T08:55:37.840Z,27.20
2019-05-22T08:56:43.009Z,18.62
2019-05-22T08:57:45.537Z,29.42
2019-05-22T08:58:46.835Z,26.48
2019-05-22T08:59:48.205Z,28.85
2019-05-22T09:00:49.722Z,20.57
2019-05-22T09:01:50.772Z,25.23
2019-05-22T09:02:52.175Z,32.50
2019-05-22T09:03:54.216Z,22.48
2019-05-22T09:04:55.227Z,15.53
2019-05-22T09:05:56.237Z,26.90
2019-05-22T09:06:57.382Z,23.10
2019-05-22T09:07:58.420Z,25.15
2019-05-22T09:08:59.731Z,28.62
2019-05-22T09:10:00.944Z,22.10
2019-05-22T09:11:02.354Z,23.67
2019-05-22T09:12:04.692Z,17.50
2019-05-22T09:13:05.803Z,27.07
2019-05-22T09:14:06.829Z,26.90
2019-05-22T09:15:09.037Z,22.17
2019-05-22T09:16:10.458Z,18.17
2019-05-22T09:17:12.184Z,21.12
2019-05-22T09:18:13.230Z,17.98
2019-05-22T09:19:14.287Z,20.57
2019-05-22T09:20:17.973Z,22.35
2019-05-22T09:21:19.585Z,26.35
2019-05-22T09:22:21.021Z,18.70
2019-05-22T09:23:22.337Z,22.87
2019-05-22T09:24:25.390Z,21.12
2019-05-22T09:25:27.280Z,20.37
2019-05-22T09:26:28.925Z,25.15
2019-05-22T09:27:30.401Z,20.95
2019-05-22T09:28:31.495Z,17.25
2019-05-22T09:29:32.636Z,24.45
2019-05-22T09:30:33.852Z,22.35
2019-05-22T09:31:35.098Z,25.85
2019-05-22T09:32:36.108Z,21.70
2019-05-22T09:33:37.119Z,20.95
2019-05-22T09:34:38.442Z,20.25
2019-05-22T09:35:39.970Z,27.73
2019-05-22T09:36:41.086Z,23.27
2019-05-22T09:37:42.096Z,27.73
2019-05-22T09:38:43.309Z,19.12
2019-05-22T09:39:45.253Z,16.57
2019-05-22T09:40:47.500Z,22.85
2019-05-22T09:41:48.737Z,23.70
2019-05-22T09:42:59.793Z,16.00
2019-05-22T09:43:58.291Z,20.23
2019-05-22T09:44:59.562Z,22.55
2019-05-22T09:46:00.717Z,23.22
2019-05-22T09:47:02.483Z,22.07
2019-05-22T09:48:04.398Z,18.40
2019-05-22T09:49:06.057Z,20.80
2019-05-22T09:50:08.768Z,21.07
2019-05-22T09:51:10.129Z,16.80
2019-05-22T09:52:11.692Z,16.57
2019-05-22T09:53:12.721Z,20.37
2019-05-22T09:54:14.058Z,15.00
2019-05-22T09:55:15.767Z,20.92
2019-05-22T09:56:17.713Z,22.40
2019-05-22T09:57:18.891Z,16.37
2019-05-22T09:58:19.946Z,21.23
2019-05-22T09:59:20.977Z,24.75
2019-05-22T10:00:22.288Z,24.18
2019-05-22T10:01:23.443Z,17.87
2019-05-22T10:02:27.670Z,17.37
2019-05-22T10:03:28.712Z,24.47
2019-05-22T10:04:30.029Z,14.65
2019-05-22T10:05:31.408Z,16.50
2019-05-22T10:06:32.437Z,26.42
2019-05-22T10:07:34.261Z,19.60
2019-05-22T10:08:35.970Z,17.57
2019-05-22T10:09:37.288Z,19.00
2019-05-22T10:10:38.311Z,20.30
2019-05-22T10:11:39.724Z,21.93
2019-05-22T10:12:41.448Z,17.10
2019-05-22T10:13:42.552Z,15.98
2019-05-22T10:14:43.998Z,22.27
2019-05-22T10:15:45.219Z,23.38
2019-05-22T10:16:46.256Z,13.50
2019-05-22T10:17:48.372Z,16.07
2019-05-22T10:18:52.957Z,21.52
2019-05-22T10:19:53.304Z,18.92
2019-05-22T10:20:55.394Z,14.70
2019-05-22T10:21:58.030Z,17.80
2019-05-22T10:23:14.019Z,11.25
2019-05-22T10:24:03.792Z,19.50
2019-05-22T10:25:15.645Z,15.28
2019-05-22T10:26:09.032Z,20.10
2019-05-22T10:27:10.789Z,15.53
2019-05-22T10:28:12.214Z,15.80
2019-05-22T10:29:13.344Z,16.77
2019-05-22T10:30:17.776Z,17.00
2019-05-22T10:31:21.776Z,11.38
2019-05-22T10:32:22.229Z,10.85
2019-05-22T10:33:23.257Z,15.68
2019-05-22T10:34:24.304Z,16.00
2019-05-22T10:35:27.627Z,21.57
2019-05-22T10:36:28.749Z,13.20
2019-05-22T10:37:30.371Z,16.55
2019-05-22T10:38:31.422Z,16.70
2019-05-22T10:39:33.532Z,17.77
2019-05-22T10:40:34.540Z,14.33
2019-05-22T10:41:35.845Z,15.65
2019-05-22T10:42:36.877Z,17.82
2019-05-22T10:43:38.008Z,17.75
2019-05-22T10:44:39.492Z,17.85
2019-05-22T10:45:40.492Z,18.23
2019-05-22T10:46:42.634Z,13.95
2019-05-22T10:47:44.558Z,15.63
2019-05-22T10:48:46.275Z,19.35
2019-05-22T10:49:47.596Z,16.23
2019-05-22T10:50:48.617Z,18.48
2019-05-22T10:51:50.337Z,16.62
2019-05-22T10:52:54.490Z,20.70
2019-05-22T10:53:55.032Z,16.75
2019-05-22T10:54:56.249Z,14.38
2019-05-22T10:55:57.362Z,17.92
2019-05-22T10:56:58.373Z,27.90
2019-05-22T10:57:59.893Z,16.07
2019-05-22T10:59:01.823Z,14.95
2019-05-22T11:00:09.959Z,17.42
2019-05-22T11:01:11.092Z,25.32
2019-05-22T11:02:12.399Z,18.07
2019-05-22T11:03:14.550Z,16.70
2019-05-22T11:04:19.380Z,18.60
2019-05-22T11:05:19.735Z,17.57
2019-05-22T11:06:21.135Z,15.72
2019-05-22T11:07:22.859Z,20.10
2019-05-22T11:08:24.777Z,18.07
2019-05-22T11:09:26.720Z,17.48
2019-05-22T11:10:28.429Z,27.73
2019-05-22T11:11:29.448Z,25.10
2019-05-22T11:12:30.561Z,17.12
2019-05-22T11:13:34.338Z,22.15
2019-05-22T11:14:36.777Z,15.53
2019-05-22T11:15:38.196Z,18.65
2019-05-22T11:16:39.641Z,14.87
2019-05-22T11:17:44.030Z,17.57
2019-05-22T11:18:45.269Z,18.02
2019-05-22T11:19:46.442Z,14.95
2019-05-22T11:20:47.612Z,15.23
2019-05-22T11:21:48.628Z,15.50
2019-05-22T11:22:49.637Z,15.18
2019-05-22T11:23:52.858Z,16.20
2019-05-22T11:24:53.679Z,18.23
2019-05-22T11:25:54.802Z,18.40
2019-05-22T11:26:55.809Z,18.98
2019-05-22T11:27:56.929Z,15.63
2019-05-22T11:28:59.054Z,16.62
2019-05-22T11:30:00.071Z,17.65
2019-05-22T11:31:01.829Z,17.87
2019-05-22T11:32:03.135Z,19.77
2019-05-22T11:33:04.762Z,13.85
2019-05-22T11:34:05.920Z,22.17
2019-05-22T11:35:08.026Z,14.33
2019-05-22T11:36:10.252Z,14.43
2019-05-22T11:37:11.468Z,15.30
2019-05-22T11:38:12.612Z,14.25
2019-05-22T11:39:17.561Z,20.23
2019-05-22T11:40:19.385Z,13.62
2019-05-22T11:41:20.555Z,15.13
2019-05-22T11:42:22.773Z,13.88
2019-05-22T11:43:23.991Z,14.28
2019-05-22T11:44:25.216Z,14.83
2019-05-22T11:45:27.247Z,14.13
2019-05-22T11:46:28.364Z,20.17
2019-05-22T11:47:29.414Z,14.55
2019-05-22T11:48:30.621Z,14.03
2019-05-22T11:49:32.045Z,18.07
2019-05-22T11:50:34.946Z,13.60
2019-05-22T11:51:36.257Z,14.73
2019-05-22T11:52:37.788Z,19.20
2019-05-22T11:53:38.812Z,19.10
2019-05-22T11:54:39.885Z,19.07
2019-05-22T11:55:45.664Z,15.30
2019-05-22T11:56:44.785Z,14.53
2019-05-22T11:57:46.405Z,14.83
2019-05-22T11:58:47.494Z,20.00
2019-05-22T11:59:48.807Z,14.43
2019-05-22T12:00:49.933Z,15.75
2019-05-22T12:01:51.283Z,19.10
2019-05-22T12:02:53.476Z,20.00
2019-05-22T12:03:55.208Z,18.92
2019-05-22T12:04:56.229Z,15.08
2019-05-22T12:05:57.341Z,15.68
2019-05-22T12:06:58.860Z,16.80
2019-05-22T12:08:00.166Z,17.95
2019-05-22T12:09:01.202Z,21.37
2019-05-22T12:10:03.847Z,17.90
2019-05-22T12:11:05.142Z,16.95
2019-05-22T12:12:09.518Z,15.75
2019-05-22T12:13:11.761Z,19.90
2019-05-22T12:14:15.220Z,18.35
2019-05-22T12:15:20.573Z,14.83
2019-05-22T12:16:22.508Z,15.78
2019-05-22T12:17:37.440Z,15.98
2019-05-22T12:18:27.637Z,16.40
2019-05-22T12:19:28.665Z,16.97
2019-05-22T12:20:30.189Z,19.92
2019-05-22T12:21:31.214Z,17.20
2019-05-22T12:22:32.948Z,21.30
2019-05-22T12:23:33.966Z,15.53
2019-05-22T12:24:37.241Z,18.55
2019-05-22T12:25:38.024Z,15.72
2019-05-22T12:26:40.043Z,14.70
2019-05-22T12:27:41.545Z,15.15
2019-05-22T12:28:42.783Z,16.70
2019-05-22T12:29:44.230Z,16.20
2019-05-22T12:30:46.625Z,16.02
2019-05-22T12:31:47.649Z,19.23
2019-05-22T12:32:49.382Z,15.03
2019-05-22T12:33:50.672Z,14.65
2019-05-22T12:34:52.234Z,13.45
2019-05-22T12:35:54.456Z,18.80
2019-05-22T12:36:56.167Z,17.50
2019-05-22T12:37:59.006Z,26.12
2019-05-22T12:39:00.367Z,13.95
2019-05-22T12:40:01.806Z,12.95
2019-05-22T12:41:03.116Z,20.92
2019-05-22T12:42:05.335Z,13.95
2019-05-22T12:43:06.939Z,13.72
2019-05-22T12:44:08.169Z,14.95
2019-05-22T12:45:10.512Z,14.70
2019-05-22T12:46:11.935Z,14.07
2019-05-22T12:47:13.448Z,16.00
2019-05-22T12:48:15.265Z,13.43
2019-05-22T12:49:17.306Z,11.40
2019-05-22T12:50:19.727Z,14.68
2019-05-22T12:51:21.145Z,13.90
2019-05-22T12:52:22.153Z,15.98
2019-05-22T12:53:23.297Z,13.90
2019-05-22T12:54:24.654Z,13.75
2019-05-22T12:55:25.859Z,15.32
2019-05-22T12:56:27.080Z,11.03
2019-05-22T12:57:28.217Z,12.20
2019-05-22T12:58:30.028Z,17.60
2019-05-22T12:59:31.609Z,15.23
2019-05-22T13:00:32.833Z,14.53
2019-05-22T13:01:34.453Z,13.03
2019-05-22T13:02:36.174Z,11.40
2019-05-22T13:03:37.688Z,15.13
2019-05-22T13:04:39.227Z,13.50
2019-05-22T13:05:40.240Z,14.85
2019-05-22T13:06:41.256Z,14.40
2019-05-22T13:07:42.620Z,14.18
2019-05-22T13:08:44.232Z,15.72
2019-05-22T13:09:46.270Z,12.75
2019-05-22T13:10:47.777Z,13.05
2019-05-22T13:11:49.243Z,14.78
2019-05-22T13:12:50.552Z,15.10
2019-05-22T13:13:52.095Z,14.87
2019-05-22T13:15:08.185Z,19.12
2019-05-22T13:15:57.353Z,17.10
2019-05-22T13:16:58.686Z,13.95
2019-05-22T13:17:59.701Z,13.10
2019-05-22T13:19:01.221Z,16.87
2019-05-22T13:20:06.757Z,12.70
2019-05-22T13:21:11.394Z,14.93
2019-05-22T13:22:15.700Z,15.00
2019-05-22T13:23:20.229Z,11.48
2019-05-22T13:24:22.394Z,13.00
2019-05-22T13:25:30.413Z,14.90
2019-05-22T13:26:34.655Z,16.93
2019-05-22T13:27:37.666Z,12.05
2019-05-22T13:28:42.712Z,14.80
2019-05-22T13:29:44.122Z,15.43
2019-05-22T13:30:49.446Z,14.15